Time;durP1;ratioP1;P1;durP2;ratioP2;P2;SDS_P1;SDS_P2;PMS_P1;PMS_P2;Temp;Humidity;BMP_temperature;BMP_pressure;BME280_temperature;BME280_humidity;BME280_pressure;Samples;Min_cycle;Max_cycle;Signal;HPM_P1;HPM_P2
2023/04/06 00:01:04;;;;;;;6.83;6.13;;;8.30;56.50;;;10.98;43.20;101906.78;5036021;28;20209;-62
2023/04/06 00:03:31;;;;;;;8.80;6.97;;;8.30;56.60;;;10.96;43.21;101900.84;5035789;28;20579;-63
2023/04/06 00:05:58;;;;;;;8.60;6.23;;;8.30;56.50;;;10.95;42.58;101912.34;5035838;28;20207;-61
2023/04/06 00:08:27;;;;;;;10.00;7.10;;;8.30;56.70;;;10.95;42.62;101901.81;5036344;28;20190;-63
2023/04/06 00:10:54;;;;;;;7.63;6.83;;;8.30;56.80;;;10.94;42.73;101897.50;5036373;28;20206;-60
2023/04/06 00:13:21;;;;;;;9.80;7.20;;;8.20;56.80;;;10.92;43.06;101902.94;5035961;28;20613;-62
2023/04/06 00:15:48;;;;;;;7.73;6.73;;;8.30;56.90;;;10.88;43.13;101907.69;5035587;28;20234;-61
2023/04/06 00:18:15;;;;;;;8.07;7.20;;;8.20;56.70;;;10.84;42.80;101894.94;5036262;28;20277;-63
2023/04/06 00:20:42;;;;;;;8.83;7.20;;;8.20;56.60;;;10.79;43.52;101892.75;5035977;28;20213;-62
2023/04/06 00:23:09;;;;;;;8.47;7.27;;;8.10;57.30;;;10.77;43.22;101893.88;5035484;28;20202;-68
2023/04/06 00:25:37;;;;;;;7.57;6.83;;;8.10;57.40;;;10.74;43.31;101888.91;5036165;28;20718;-61
2023/04/06 00:28:04;;;;;;;7.37;6.67;;;8.10;57.80;;;10.70;43.40;101888.38;5034983;28;20213;-59
2023/04/06 00:30:31;;;;;;;7.50;6.77;;;8.00;57.50;;;10.66;43.95;101884.38;5036253;28;20203;-62
2023/04/06 00:32:58;;;;;;;9.33;6.80;;;7.90;57.80;;;10.62;43.90;101885.66;5035956;28;20195;-61
2023/04/06 00:35:25;;;;;;;8.77;7.07;;;7.90;58.00;;;10.60;43.44;101882.31;5033830;28;20249;-63
2023/04/06 00:37:52;;;;;;;8.80;7.57;;;7.90;58.00;;;10.57;43.81;101884.41;5035953;28;20735;-63
2023/04/06 00:40:19;;;;;;;8.43;7.63;;;7.90;58.00;;;10.53;43.72;101878.59;5035856;28;20204;-62
2023/04/06 00:42:48;;;;;;;9.07;7.20;;;7.80;58.00;;;10.49;43.68;101871.16;5035594;28;20647;-63
2023/04/06 00:45:15;;;;;;;8.87;7.93;;;7.80;58.10;;;10.45;43.79;101875.06;5049716;28;20309;-62
2023/04/06 00:47:42;;;;;;;9.43;7.53;;;7.70;58.40;;;10.40;44.09;101875.50;5034902;28;20226;-61
2023/04/06 00:50:09;;;;;;;9.10;8.20;;;7.60;58.50;;;10.36;44.46;101874.13;5035714;28;20260;-62
2023/04/06 00:52:36;;;;;;;9.23;8.23;;;7.70;58.70;;;10.32;44.13;101875.38;5035868;28;20651;-61
2023/04/06 00:55:05;;;;;;;8.27;7.43;;;7.60;58.80;;;10.29;44.75;101870.44;5035319;28;20226;-63
2023/04/06 00:57:32;;;;;;;8.87;7.97;;;7.60;59.10;;;10.29;45.05;101873.06;5035411;28;20191;-65
2023/04/06 01:00:00;;;;;;;8.57;7.57;;;7.60;59.40;;;10.29;44.38;101870.44;5034556;28;20289;-63
2023/04/06 01:02:27;;;;;;;11.53;8.37;;;7.60;59.40;;;10.32;44.80;101866.69;5035024;28;20195;-61
2023/04/06 01:04:55;;;;;;;8.77;7.80;;;7.60;59.30;;;10.32;44.74;101856.97;5034631;28;20218;-62
2023/04/06 01:07:22;;;;;;;9.57;6.87;;;7.60;59.10;;;10.31;44.19;101867.66;5034711;28;20218;-65
2023/04/06 01:09:49;;;;;;;10.27;7.60;;;7.60;59.00;;;10.30;44.61;101868.59;5035377;28;20199;-62
2023/04/06 01:12:16;;;;;;;9.93;8.93;;;7.60;59.00;;;10.24;44.23;101854.25;5035178;28;20190;-62
2023/04/06 01:14:43;;;;;;;11.53;9.00;;;7.50;58.90;;;10.21;44.14;101851.91;5034606;28;20214;-63
2023/04/06 01:17:12;;;;;;;9.10;8.20;;;7.50;59.00;;;10.16;44.53;101851.50;5035771;28;20665;-63
2023/04/06 01:19:40;;;;;;;10.20;8.17;;;7.50;59.30;;;10.09;44.82;101850.38;5034038;28;20191;-64
2023/04/06 01:22:07;;;;;;;11.47;8.97;;;7.40;59.40;;;10.05;45.04;101851.66;5035254;28;20281;-61
2023/04/06 01:24:35;;;;;;;10.37;7.87;;;7.30;59.40;;;10.02;44.83;101854.56;5034519;28;20211;-63
2023/04/06 01:27:03;;;;;;;9.07;8.17;;;7.30;59.80;;;9.99;45.13;101849.56;5034991;28;20226;-62
2023/04/06 01:29:30;;;;;;;10.33;7.93;;;7.30;59.70;;;9.96;45.11;101844.63;5036690;28;20201;-64
2023/04/06 01:31:57;;;;;;;10.60;8.63;;;7.20;59.60;;;9.94;45.11;101851.81;5035220;28;20571;-64
2023/04/06 01:34:26;;;;;;;11.33;8.53;;;7.20;59.80;;;9.92;45.16;101848.50;5034330;28;20215;-64
2023/04/06 01:36:53;;;;;;;9.93;8.43;;;7.20;59.80;;;9.91;45.33;101836.34;5033273;28;20201;-63
2023/04/06 01:39:20;;;;;;;9.37;8.27;;;7.20;60.00;;;9.92;44.78;101837.97;5034067;28;20206;-66
2023/04/06 01:41:48;;;;;;;10.53;8.67;;;7.20;59.90;;;9.94;45.15;101843.91;5034276;28;20558;-63
2023/04/06 01:44:18;;;;;;;9.10;8.20;;;7.20;59.90;;;9.94;44.68;101843.91;5033601;28;20217;-62
2023/04/06 01:46:45;;;;;;;8.77;7.87;;;7.20;59.70;;;9.91;45.12;101841.59;5014681;28;20226;-63
2023/04/06 01:49:12;;;;;;;8.87;7.70;;;7.10;59.50;;;9.90;44.49;101834.66;5027415;28;20216;-62
2023/04/06 01:51:40;;;;;;;12.40;8.53;;;7.10;59.70;;;9.88;44.83;101841.88;5034982;28;20193;-62
2023/04/06 01:54:06;;;;;;;11.50;7.80;;;7.10;59.70;;;9.85;44.90;101831.63;5034426;28;20208;-63
2023/04/06 01:56:34;;;;;;;10.07;8.37;;;7.10;59.90;;;9.80;45.21;101823.34;5034820;28;20569;-63
2023/04/06 01:59:02;;;;;;;11.13;8.33;;;7.10;59.90;;;9.78;44.87;101825.28;5035733;28;20721;-65
2023/04/06 02:01:29;;;;;;;9.67;8.40;;;7.10;60.00;;;9.75;45.10;101825.56;5034534;28;20198;-64
2023/04/06 02:03:56;;;;;;;9.63;8.63;;;7.00;60.20;;;9.77;45.46;101828.91;5035762;28;20714;-63
2023/04/06 02:06:23;;;;;;;9.60;8.23;;;7.10;60.80;;;9.79;45.05;101821.69;5034518;28;20221;-60
2023/04/06 02:08:50;;;;;;;9.57;8.23;;;7.10;60.10;;;9.79;45.04;101817.28;5033456;28;20195;-60
2023/04/06 02:11:17;;;;;;;9.60;7.60;;;7.10;59.80;;;9.79;44.87;101811.19;5034841;28;20192;-61
2023/04/06 02:13:44;;;;;;;10.07;8.40;;;7.10;59.50;;;9.78;44.43;101814.78;5033829;28;20285;-63
2023/04/06 02:16:12;;;;;;;8.97;7.10;;;7.10;59.10;;;9.74;44.48;101813.41;5034881;28;20190;-62
2023/04/06 02:18:39;;;;;;;11.30;7.70;;;7.00;58.90;;;9.70;44.57;101806.78;5034767;28;20190;-63
2023/04/06 02:21:06;;;;;;;10.53;8.93;;;7.00;59.60;;;9.68;44.45;101804.28;5034219;28;20198;-63
2023/04/06 02:23:33;;;;;;;8.50;7.30;;;7.00;59.20;;;9.66;44.50;101808.00;5033937;28;20194;-63
2023/04/06 02:26:00;;;;;;;8.27;7.47;;;7.00;59.00;;;9.61;44.44;101807.59;5034816;28;20216;-63
2023/04/06 02:28:27;;;;;;;9.73;7.50;;;6.90;58.90;;;9.58;44.33;101810.53;5034377;28;20209;-62
2023/04/06 02:30:54;;;;;;;8.83;7.57;;;6.90;59.00;;;9.54;44.26;101810.81;5034438;28;20571;-64
2023/04/06 02:33:22;;;;;;;8.33;6.90;;;6.80;59.00;;;9.52;44.86;101807.50;5049414;28;20216;-63
2023/04/06 02:35:49;;;;;;;8.57;7.77;;;6.80;59.60;;;9.54;44.59;101808.19;5034937;28;20214;-63
2023/04/06 02:38:16;;;;;;;7.73;6.93;;;6.80;59.30;;;9.54;44.54;101808.19;5034772;28;20266;-64
2023/04/06 02:40:43;;;;;;;8.80;7.90;;;6.80;59.30;;;9.54;44.46;101802.09;5034391;28;20209;-65
2023/04/06 02:43:10;;;;;;;8.97;7.87;;;6.80;58.90;;;9.52;44.03;101798.78;5034683;28;20205;-61
2023/04/06 02:45:37;;;;;;;9.00;7.10;;;6.70;58.70;;;9.48;43.88;101803.47;5034202;28;20233;-63
2023/04/06 02:48:05;;;;;;;7.50;6.73;;;6.70;58.60;;;9.47;44.15;101801.84;5034610;28;20560;-62
2023/04/06 02:50:33;;;;;;;7.93;7.03;;;6.70;58.60;;;9.45;43.85;101798.53;5034113;28;20278;-64
2023/04/06 02:53:00;;;;;;;10.60;7.57;;;6.70;58.50;;;9.43;44.00;101800.47;5034547;28;20196;-64
2023/04/06 02:55:27;;;;;;;7.97;7.17;;;6.70;58.40;;;9.42;43.73;101797.97;5034393;28;20207;-63
2023/04/06 02:57:54;;;;;;;8.20;6.73;;;6.70;58.40;;;9.42;43.53;101798.81;5034932;28;20523;-61
2023/04/06 03:00:21;;;;;;;9.47;7.27;;;6.70;58.20;;;9.40;43.40;101792.88;5035589;28;20198;-62
2023/04/06 03:02:48;;;;;;;8.47;7.00;;;6.70;57.80;;;9.39;43.12;101788.56;5034553;28;20189;-64
2023/04/06 03:05:15;;;;;;;7.53;6.33;;;6.70;57.60;;;9.40;43.31;101792.88;5034023;28;20309;-62
2023/04/06 03:07:44;;;;;;;7.33;6.60;;;6.70;57.80;;;9.42;43.26;101790.09;5034063;28;20218;-63
2023/04/06 03:10:11;;;;;;;7.67;6.97;;;6.70;58.30;;;9.44;43.13;101788.13;5038436;28;20194;-65
2023/04/06 03:12:38;;;;;;;7.07;6.37;;;6.70;57.20;;;9.44;42.66;101783.72;5038625;28;20586;-64
2023/04/06 03:15:07;;;;;;;7.30;6.60;;;6.70;57.00;;;9.44;42.76;101781.09;5037725;28;20220;-65
2023/04/06 03:17:34;;;;;;;7.03;6.33;;;6.70;56.60;;;9.42;42.66;101782.22;5038424;28;20196;-63
2023/04/06 03:20:01;;;;;;;8.27;6.87;;;6.70;56.40;;;9.40;42.35;101779.72;5038032;28;20194;-63
2023/04/06 03:22:29;;;;;;;9.03;6.87;;;6.70;56.30;;;9.39;42.03;101779.84;5037587;28;20195;-62
2023/04/06 03:24:57;;;;;;;8.10;6.63;;;6.70;55.90;;;9.36;42.12;101777.53;5052628;28;20253;-61
2023/04/06 03:27:24;;;;;;;7.07;6.37;;;6.70;55.60;;;9.32;41.78;101782.22;5038301;28;20265;-63
2023/04/06 03:29:51;;;;;;;7.70;6.80;;;6.70;55.50;;;9.29;41.96;101785.16;5036827;28;20202;-63
2023/04/06 03:32:18;;;;;;;6.70;6.03;;;6.70;55.40;;;9.27;41.75;101784.44;5038983;28;20197;-62
2023/04/06 03:34:45;;;;;;;7.60;6.70;;;6.60;55.30;;;9.18;41.75;101785.28;5035717;28;20233;-61
2023/04/06 03:37:12;;;;;;;7.23;6.53;;;6.60;55.20;;;9.13;41.82;101771.72;5037335;28;20548;-62
2023/04/06 03:39:40;;;;;;;6.87;6.20;;;6.50;54.80;;;9.13;41.76;101776.19;5037406;28;20198;-64
2023/04/06 03:42:09;;;;;;;6.80;6.13;;;6.50;54.90;;;9.10;41.87;101779.91;5038115;28;20209;-64
2023/04/06 03:44:36;;;;;;;8.37;6.63;;;6.50;55.00;;;9.10;41.45;101779.91;5038306;28;20560;-62
2023/04/06 03:47:03;;;;;;;7.67;6.87;;;6.50;54.80;;;9.11;41.48;101784.19;5037330;28;20212;-64
2023/04/06 03:49:30;;;;;;;7.73;6.93;;;6.50;54.90;;;9.13;41.30;101779.63;5036940;28;20188;-62
2023/04/06 03:51:58;;;;;;;8.57;6.70;;;6.50;54.80;;;9.15;41.55;101775.03;5036632;28;20204;-64
2023/04/06 03:54:25;;;;;;;7.90;6.70;;;6.50;54.70;;;9.17;41.53;101782.81;5036248;28;20281;-65
2023/04/06 03:56:52;;;;;;;7.03;6.33;;;6.50;54.80;;;9.18;41.40;101779.19;5037417;28;20213;-62
2023/04/06 03:59:20;;;;;;;9.20;7.37;;;6.50;54.80;;;9.18;41.41;101785.28;5037049;28;20206;-63
2023/04/06 04:01:47;;;;;;;8.37;7.60;;;6.40;55.10;;;9.17;41.72;101777.56;5037025;28;20259;-62
2023/04/06 04:04:14;;;;;;;7.63;6.83;;;6.40;55.20;;;9.15;42.06;101782.94;5037245;28;20224;-64
2023/04/06 04:06:41;;;;;;;8.43;7.17;;;6.40;55.70;;;9.12;41.98;101775.34;5036404;28;20216;-64
2023/04/06 04:09:08;;;;;;;8.50;7.60;;;6.40;55.90;;;9.12;42.11;101783.22;5037841;28;20204;-64
2023/04/06 04:11:36;;;;;;;7.77;6.97;;;6.40;56.00;;;9.12;41.97;101783.22;5036424;28;20202;-62
2023/04/06 04:14:03;;;;;;;8.63;7.80;;;6.40;55.60;;;9.11;41.78;101784.19;5037208;28;20227;-64
2023/04/06 04:16:31;;;;;;;8.77;7.63;;;6.40;55.40;;;9.08;42.29;101781.81;5037375;28;20186;-62
2023/04/06 04:18:58;;;;;;;9.13;7.73;;;6.40;55.70;;;9.07;41.88;101793.31;5052240;28;20514;-63
2023/04/06 04:21:25;;;;;;;10.93;7.60;;;6.40;55.30;;;9.05;41.53;101795.25;5036565;28;20196;-63
2023/04/06 04:23:52;;;;;;;8.33;7.53;;;6.30;55.10;;;9.02;41.79;101792.91;5036785;28;20213;-62
2023/04/06 04:26:19;;;;;;;8.73;7.83;;;6.30;55.10;;;9.01;41.92;101791.22;5036973;28;20226;-64
2023/04/06 04:28:46;;;;;;;11.70;7.83;;;6.30;55.30;;;9.00;41.77;101794.84;5037097;28;20222;-67
2023/04/06 04:31:13;;;;;;;9.07;8.13;;;6.30;55.20;;;8.99;41.44;101795.78;5036577;28;20202;-61
2023/04/06 04:33:41;;;;;;;8.20;7.40;;;6.20;54.90;;;8.95;41.53;101789.16;5036102;28;20202;-63
2023/04/06 04:36:09;;;;;;;9.97;7.83;;;6.20;54.90;;;8.91;41.58;101785.16;5035518;28;20209;-63
2023/04/06 04:38:36;;;;;;;8.30;7.07;;;6.20;54.90;;;8.88;41.58;101792.47;5035160;28;20197;-63
2023/04/06 04:41:04;;;;;;;10.07;8.03;;;6.20;54.90;;;8.85;41.37;101785.69;5036512;28;20528;-62
2023/04/06 04:43:31;;;;;;;10.30;9.27;;;6.10;55.00;;;8.84;41.63;101787.50;5036426;28;20669;-61
2023/04/06 04:45:59;;;;;;;9.67;8.40;;;6.10;54.90;;;8.83;41.33;101785.00;5036770;28;20196;-63
2023/04/06 04:48:26;;;;;;;10.13;8.40;;;6.10;54.80;;;8.82;41.53;101788.59;5034412;28;20225;-62
2023/04/06 04:50:55;;;;;;;9.20;8.13;;;6.10;54.90;;;8.83;41.48;101790.25;5036190;28;20195;-62
2023/04/06 04:53:22;;;;;;;9.97;8.13;;;6.10;54.60;;;8.82;41.43;101792.06;5035103;28;20230;-63
2023/04/06 04:55:53;;;;;;;12.50;8.80;;;6.10;54.70;;;8.83;41.06;101790.25;5035593;28;20615;-62
2023/04/06 04:58:20;;;;;;;9.90;7.57;;;6.10;54.40;;;8.80;40.63;101790.53;5034971;28;20190;-65
2023/04/06 05:00:47;;;;;;;11.40;7.73;;;6.10;53.80;;;8.80;40.55;101790.53;5034505;28;20202;-64
2023/04/06 05:03:22;;;;;;;8.83;7.80;;;6.10;53.60;;;8.79;40.66;101783.63;5034858;28;20196;-63
2023/04/06 05:05:50;;;;;;;11.23;8.67;;;6.10;53.80;;;8.82;40.74;101788.59;5034577;28;20214;-62
2023/04/06 05:08:18;;;;;;;11.17;7.90;;;6.10;53.80;;;8.78;40.55;101781.97;5034402;28;20216;-64
2023/04/06 05:10:46;;;;;;;9.60;8.47;;;6.10;53.50;;;8.79;40.35;101781.00;5034419;28;20196;-63
2023/04/06 05:13:13;;;;;;;11.27;8.53;;;6.10;53.60;;;8.79;41.05;101783.63;5034777;28;20219;-65
2023/04/06 05:15:41;;;;;;;12.67;8.70;;;6.10;53.70;;;8.84;40.90;101781.44;5034659;28;20214;-63
2023/04/06 05:18:08;;;;;;;10.20;7.90;;;6.10;53.70;;;8.90;40.68;101790.53;5034352;28;20193;-64
2023/04/06 05:20:36;;;;;;;9.77;8.50;;;6.10;53.80;;;8.92;40.76;101788.59;5034065;28;20194;-62
2023/04/06 05:23:03;;;;;;;10.27;8.33;;;6.20;53.70;;;8.94;40.66;101787.50;5034538;28;20201;-63
2023/04/06 05:25:32;;;;;;;11.70;8.13;;;6.20;53.60;;;8.95;40.90;101778.66;5034578;28;20675;-64
2023/04/06 05:28:00;;;;;;;9.17;8.30;;;6.20;53.80;;;8.99;40.32;101782.66;5033685;28;20212;-64
2023/04/06 05:30:27;;;;;;;10.70;8.27;;;6.20;53.70;;;9.04;40.45;101785.72;5033441;28;20195;-64
2023/04/06 05:32:54;;;;;;;8.60;7.70;;;6.20;53.70;;;9.08;40.24;101779.19;5034147;28;20200;-63
2023/04/06 05:35:22;;;;;;;10.30;7.03;;;6.30;53.50;;;9.11;40.35;101778.94;5033951;28;20302;-62
2023/04/06 05:37:49;;;;;;;9.70;8.33;;;6.30;53.40;;;9.17;40.35;101778.38;5035216;28;20748;-62
2023/04/06 05:40:16;;;;;;;20.70;15.13;;;6.30;53.40;;;9.19;40.10;101773.81;5033501;28;20416;-62
2023/04/06 05:42:44;;;;;;;9.27;8.20;;;6.40;53.30;;;9.22;39.57;101775.34;5034153;28;20191;-65
2023/04/06 05:45:16;;;;;;;9.07;7.57;;;6.40;52.70;;;9.23;39.96;101772.56;5033778;28;20225;-63
2023/04/06 05:47:44;;;;;;;10.90;7.57;;;6.40;52.60;;;9.23;39.66;101775.19;5049302;28;20210;-64
2023/04/06 05:50:12;;;;;;;8.70;7.80;;;6.50;52.60;;;9.20;39.42;101780.72;5033713;28;20195;-63
2023/04/06 05:52:42;;;;;;;8.43;7.47;;;6.50;52.00;;;9.22;39.26;101775.34;5034034;28;20664;-64
2023/04/06 05:55:11;;;;;;;13.67;8.20;;;6.50;52.10;;;9.23;39.50;101772.56;5034022;28;20218;-63
2023/04/06 05:57:38;;;;;;;10.53;9.10;;;6.50;52.60;;;9.25;39.25;101775.03;5034208;28;20226;-63
2023/04/06 06:00:09;;;;;;;9.00;8.10;;;6.50;51.90;;;9.27;39.26;101768.69;5034135;28;20200;-63
2023/04/06 06:02:36;;;;;;;14.60;8.87;;;6.50;52.20;;;9.31;39.35;101775.31;5032987;28;20236;-63
2023/04/06 06:05:04;;;;;;;12.30;9.53;;;6.60;52.30;;;9.37;39.46;101773.91;5032455;28;20222;-62
2023/04/06 06:07:31;;;;;;;9.80;8.17;;;6.60;52.40;;;9.32;39.33;101776.97;5032947;28;20705;-64
2023/04/06 06:09:58;;;;;;;13.77;8.17;;;6.60;51.80;;;9.32;39.46;101776.97;5034057;28;20199;-62
2023/04/06 06:12:25;;;;;;;8.73;7.77;;;6.70;51.80;;;9.31;39.24;101770.06;5047427;28;20199;-63
2023/04/06 06:14:53;;;;;;;9.87;7.17;;;6.70;51.60;;;9.31;39.50;101772.69;5035509;28;20300;-64
2023/04/06 06:17:21;;;;;;;13.57;7.70;;;6.70;51.60;;;9.33;39.16;101781.25;5036903;28;20214;-63
2023/04/06 06:19:48;;;;;;;10.10;7.23;;;6.70;51.50;;;9.37;39.39;101779.16;5052413;28;20225;-63
2023/04/06 06:22:15;;;;;;;11.10;7.30;;;6.70;51.60;;;9.43;39.00;101779.47;5034585;28;20667;-62
2023/04/06 06:24:42;;;;;;;9.23;7.97;;;6.70;51.50;;;9.48;39.17;101777.22;5032804;28;20217;-66
2023/04/06 06:27:09;;;;;;;8.90;7.97;;;6.80;51.30;;;9.58;39.04;101782.44;5033272;28;20195;-64
2023/04/06 06:29:36;;;;;;;8.20;7.40;;;6.80;51.60;;;9.64;39.02;101781.88;5033264;28;20282;-65
2023/04/06 06:32:03;;;;;;;10.13;7.37;;;6.90;51.20;;;9.69;38.56;101773.56;5035273;28;20193;-63
2023/04/06 06:34:32;;;;;;;10.07;7.87;;;7.00;50.90;;;9.67;38.11;101775.53;5016834;28;20238;-62
2023/04/06 06:36:59;;;;;;;9.03;7.40;;;7.00;50.60;;;9.62;38.86;101777.75;5032784;28;20221;-64
2023/04/06 06:39:26;;;;;;;8.83;7.57;;;7.00;50.60;;;9.59;38.72;101772.75;5032749;28;20205;-65
2023/04/06 06:41:55;;;;;;;8.10;6.57;;;7.00;50.60;;;9.57;38.69;101769.47;5032705;28;20194;-62
2023/04/06 06:44:22;;;;;;;11.27;8.90;;;7.00;50.50;;;9.59;38.99;101772.75;5035946;28;20207;-64
2023/04/06 06:46:49;;;;;;;7.57;6.87;;;7.00;50.60;;;9.64;38.78;101781.06;5037294;28;20208;-64
2023/04/06 06:49:16;;;;;;;8.60;7.17;;;7.00;50.60;;;9.74;38.88;101771.34;5037073;28;20225;-64
2023/04/06 06:51:46;;;;;;;10.40;9.07;;;7.10;50.80;;;9.87;38.30;101772.66;5037186;28;20202;-63
2023/04/06 06:54:13;;;;;;;8.13;7.27;;;7.10;50.80;;;10.01;38.59;101769.56;5035550;28;20213;-62
2023/04/06 06:56:40;;;;;;;8.93;6.90;;;7.20;50.90;;;10.12;38.18;101765.97;5037549;28;20202;-65
2023/04/06 06:59:07;;;;;;;9.80;8.03;;;7.30;50.50;;;10.19;37.83;101777.56;5037612;28;20262;-62
2023/04/06 07:01:36;;;;;;;9.63;7.50;;;7.40;50.10;;;10.19;37.91;101767.88;5037540;28;20203;-64
2023/04/06 07:04:04;;;;;;;7.43;6.60;;;7.40;49.70;;;10.24;38.20;101769.22;5036767;28;20222;-63
2023/04/06 07:06:31;;;;;;;9.10;6.63;;;7.50;49.90;;;10.35;38.25;101761.94;5051746;28;20294;-64
2023/04/06 07:08:59;;;;;;;8.73;6.77;;;7.60;50.20;;;10.35;38.28;101761.94;5036225;28;20628;-64
2023/04/06 07:11:26;;;;;;;16.67;6.70;;;7.70;50.00;;;10.49;38.12;101764.06;5035715;28;20210;-64
2023/04/06 07:13:53;;;;;;;7.00;6.30;;;7.70;49.90;;;10.80;37.12;101762.75;5036468;28;20221;-64
2023/04/06 07:16:20;;;;;;;9.43;6.73;;;7.80;49.90;;;11.16;35.96;101762.72;5036773;28;20218;-64
2023/04/06 07:18:47;;;;;;;7.33;6.63;;;8.00;48.60;;;11.37;35.96;101765.84;5036471;28;20655;-63
2023/04/06 07:21:15;;;;;;;10.53;7.13;;;8.20;48.00;;;11.58;35.44;101763.66;5037839;28;20729;-64
2023/04/06 07:23:42;;;;;;;7.40;6.70;;;8.40;47.20;;;11.86;35.32;101757.25;5031379;28;20676;-64
2023/04/06 07:26:11;;;;;;;8.40;7.10;;;8.80;46.80;;;12.16;34.56;101748.81;5040652;28;20710;-66
2023/04/06 07:28:38;;;;;;;7.50;6.87;;;9.10;46.00;;;12.62;33.81;101750.06;5049640;28;20208;-66
2023/04/06 07:31:05;;;;;;;7.63;6.83;;;9.40;44.70;;;13.11;32.84;101744.84;5035055;28;20219;-65
2023/04/06 07:33:32;;;;;;;6.50;5.90;;;9.80;43.90;;;13.73;32.58;101744.09;5035045;28;20202;-66
2023/04/06 07:35:59;;;;;;;7.03;6.30;;;10.20;42.90;;;14.38;31.08;101744.63;5036184;28;20663;-65
2023/04/06 07:38:26;;;;;;;7.17;6.47;;;10.60;41.10;;;14.62;30.22;101743.69;5017979;28;20210;-64
2023/04/06 07:40:54;;;;;;;7.67;6.67;;;10.90;39.90;;;15.03;30.06;101741.53;5036899;28;20213;-64
2023/04/06 07:43:22;;;;;;;6.83;6.13;;;11.30;39.60;;;15.66;29.95;101744.63;5036191;28;20202;-63
2023/04/06 07:45:49;;;;;;;8.30;6.67;;;11.80;39.90;;;16.27;28.63;101730.91;5032922;28;20247;-63
2023/04/06 07:48:16;;;;;;;7.00;6.40;;;12.20;37.90;;;16.99;28.41;101735.31;5035705;28;20218;-65
2023/04/06 07:50:43;;;;;;;7.37;6.60;;;12.80;38.10;;;17.59;26.73;101738.22;5035147;28;20194;-64
2023/04/06 07:53:10;;;;;;;7.60;6.90;;;13.10;36.00;;;17.58;26.57;101734.78;5031124;28;20195;-64
2023/04/06 07:55:37;;;;;;;7.33;6.63;;;13.40;35.10;;;17.74;26.70;101738.94;5043823;28;20520;-64
2023/04/06 07:58:04;;;;;;;7.53;6.60;;;13.70;34.80;;;18.02;26.38;101730.88;5047341;28;20202;-64
2023/04/06 08:00:33;;;;;;;6.97;6.37;;;14.00;34.10;;;18.25;26.08;101726.91;5024453;28;20203;-59
2023/04/06 08:03:00;;;;;;;7.93;6.63;;;14.20;33.80;;;18.75;25.91;101722.94;5043173;28;20199;-63
2023/04/06 08:05:27;;;;;;;8.20;7.07;;;14.60;33.80;;;19.20;25.02;101731.97;5039078;28;20332;-64
2023/04/06 08:07:54;;;;;;;6.97;6.23;;;14.80;32.80;;;19.61;24.50;101729.06;5054712;28;20558;-65
2023/04/06 08:10:21;;;;;;;6.80;6.10;;;15.10;32.30;;;20.12;24.48;101721.03;5040742;28;20194;-63
2023/04/06 08:12:48;;;;;;;6.80;6.10;;;15.60;32.40;;;20.58;22.97;101712.81;5034278;28;20241;-64
2023/04/06 08:15:17;;;;;;;6.77;6.17;;;15.90;31.30;;;20.99;23.52;101717.66;5050114;28;20245;-63
2023/04/06 08:17:46;;;;;;;7.50;6.10;;;16.20;31.40;;;21.26;22.72;101719.88;5034743;28;20209;-64
2023/04/06 08:20:13;;;;;;;7.50;6.20;;;16.50;30.60;;;21.76;22.80;101722.44;5035681;28;20281;-65
2023/04/06 08:22:40;;;;;;;6.67;5.97;;;16.80;30.40;;;22.15;21.95;101713.97;5036009;28;20643;-63
2023/04/06 08:25:08;;;;;;;8.00;7.20;;;17.10;29.50;;;22.50;20.98;101714.91;5034730;28;20671;-64
2023/04/06 08:27:35;;;;;;;6.90;6.27;;;17.20;28.40;;;22.53;20.88;101717.16;5035042;28;20681;-61
2023/04/06 08:30:03;;;;;;;7.37;6.67;;;17.50;28.30;;;22.94;21.25;101712.81;5036610;28;20306;-62
2023/04/06 08:32:30;;;;;;;9.37;6.53;;;17.90;28.80;;;23.38;20.61;101714.94;5048259;28;20191;-66
2023/04/06 08:34:58;;;;;;;7.13;6.43;;;18.20;28.00;;;23.69;20.17;101711.88;5019839;28;20226;-66
2023/04/06 08:37:28;;;;;;;6.50;5.93;;;18.50;27.50;;;23.96;20.22;101712.94;5034507;28;20194;-64
2023/04/06 08:39:54;;;;;;;6.30;5.70;;;18.90;27.80;;;24.43;19.60;101708.25;5060834;28;20202;-62
2023/04/06 08:42:28;;;;;;;7.43;6.83;;;19.10;27.00;;;24.45;19.31;101708.81;5036317;28;20194;-63
2023/04/06 08:44:55;;;;;;;7.23;6.63;;;19.20;26.30;;;24.32;18.82;101700.22;5033857;28;20697;-65
2023/04/06 08:47:22;;;;;;;8.43;6.97;;;19.30;26.10;;;23.64;19.53;101695.63;5031655;28;20674;-64
2023/04/06 08:49:53;;;;;;;7.30;6.70;;;19.00;25.90;;;22.90;20.25;101697.16;5031219;28;20273;-64
2023/04/06 08:52:23;;;;;;;6.67;5.90;;;18.70;26.40;;;23.05;20.53;101698.56;5055730;28;20213;-65
2023/04/06 08:54:50;;;;;;;7.07;6.37;;;18.80;26.80;;;23.47;20.18;101697.41;5046353;28;20215;-63
2023/04/06 08:57:20;;;;;;;6.90;6.20;;;18.90;26.80;;;23.78;19.65;101696.16;5034731;28;20198;-64
2023/04/06 08:59:48;;;;;;;6.97;6.37;;;18.90;26.40;;;23.89;19.53;101692.66;5034051;28;20194;-63
2023/04/06 09:02:18;;;;;;;8.10;7.40;;;19.10;26.40;;;24.18;19.52;101689.75;5034296;28;20187;-64
2023/04/06 09:04:47;;;;;;;8.10;7.40;;;19.20;26.30;;;24.51;19.04;101704.34;5033023;28;20264;-64
2023/04/06 09:07:15;;;;;;;6.77;6.17;;;19.40;26.20;;;24.66;19.03;101701.91;5047053;28;20225;-64
2023/04/06 09:09:47;;;;;;;7.47;6.70;;;19.60;26.10;;;24.93;19.08;101707.50;5042944;28;20218;-62
2023/04/06 09:12:24;;;;;;;7.87;7.17;;;19.80;26.30;;;24.74;18.61;101696.13;5034503;28;20191;-64
2023/04/06 09:14:51;;;;;;;49.87;36.73;;;19.80;25.10;;;24.96;18.97;101693.53;5030563;28;20325;-64
2023/04/06 09:17:22;;;;;;;6.90;6.20;;;20.00;25.70;;;25.42;18.00;101695.81;5034139;28;20199;-65
2023/04/06 09:19:49;;;;;;;6.43;5.93;;;20.20;25.60;;;25.48;18.41;101695.66;5032356;28;21721;-63
2023/04/06 09:22:17;;;;;;;7.00;6.30;;;20.20;25.10;;;25.64;17.79;101694.00;5036188;28;20569;-66
2023/04/06 09:24:49;;;;;;;8.05;7.35;;;20.40;25.10;;;25.96;18.36;101696.81;5031695;28;20798;-63
2023/04/06 09:27:29;;;;;;;7.13;6.53;;;20.50;25.40;;;26.27;18.16;101685.28;5034763;28;20199;-65
2023/04/06 09:30:05;;;;;;;7.45;6.70;;;20.70;25.30;;;27.21;16.81;101690.94;5035399;28;20437;-66
2023/04/06 09:32:32;;;;;;;7.27;6.57;;;21.00;24.80;;;27.09;16.88;101693.00;5049444;28;20481;-66
2023/04/06 09:35:06;;;;;;;7.90;7.27;;;21.20;24.20;;;26.91;17.09;101688.81;5028559;28;20257;-64
2023/04/06 09:37:34;;;;;;;7.50;6.80;;;21.30;24.00;;;27.12;17.28;101679.81;5030224;28;20198;-66
2023/04/06 09:40:07;;;;;;;8.13;7.40;;;21.70;24.60;;;27.70;16.37;101683.34;5030088;28;20476;-65
2023/04/06 09:42:35;;;;;;;9.23;8.43;;;21.70;24.20;;;27.78;16.27;101674.72;5029062;28;20194;-63
2023/04/06 09:45:03;;;;;;;8.00;7.20;;;22.10;24.20;;;28.14;16.45;101677.31;5031335;28;20761;-65
2023/04/06 09:47:33;;;;;;;7.03;6.50;;;22.40;23.90;;;28.30;15.68;101685.44;5031551;28;20206;-64
2023/04/06 09:50:01;;;;;;;8.97;7.53;;;22.50;23.10;;;28.06;15.89;101674.28;5031968;28;20254;-63
2023/04/06 09:52:33;;;;;;;8.43;7.17;;;22.50;22.80;;;28.10;16.08;101675.38;5034355;28;20674;-65
2023/04/06 09:55:07;;;;;;;9.20;8.40;;;22.70;23.20;;;28.61;15.66;101673.56;5030549;28;20437;-64
2023/04/06 09:57:48;;;;;;;10.53;9.53;;;22.70;23.10;;;28.99;15.91;101678.41;5021337;28;20520;-64
2023/04/06 10:00:23;;;;;;;8.33;7.53;;;23.00;23.70;;;28.62;15.34;101677.91;5027901;28;20305;-65
2023/04/06 10:02:58;;;;;;;8.47;7.67;;;23.00;22.50;;;28.52;15.73;101680.59;5031243;28;20240;-65
2023/04/06 10:05:37;;;;;;;8.37;7.43;;;23.10;22.70;;;28.46;15.26;101678.94;5028539;28;20679;-65
2023/04/06 10:08:09;;;;;;;8.00;7.30;;;23.10;22.40;;;28.39;15.46;101678.38;5032015;28;20197;-65
2023/04/06 10:10:38;;;;;;;8.80;7.73;;;23.10;22.20;;;28.62;15.13;101677.91;5030762;28;20223;-66
2023/04/06 10:13:07;;;;;;;9.00;8.20;;;23.10;22.10;;;29.06;15.11;101678.94;5019117;28;20199;-66
2023/04/06 10:15:34;;;;;;;8.80;8.10;;;23.30;22.20;;;29.16;15.04;101672.69;5029776;28;20321;-66
2023/04/06 10:18:03;;;;;;;11.87;7.70;;;23.50;22.20;;;29.74;14.87;101673.88;5035578;28;20194;-66
2023/04/06 10:20:39;;;;;;;12.43;8.00;;;23.80;22.40;;;30.55;13.80;101675.00;5027259;28;20198;-68
2023/04/06 10:23:16;;;;;;;9.43;8.53;;;24.10;21.90;;;30.40;14.28;101669.69;5031387;28;20210;-67